Time;durP1;ratioP1;P1;durP2;ratioP2;P2;SDS_P1;SDS_P2;PMS_P1;PMS_P2;Temp;Humidity;BMP_temperature;BMP_pressure;BME280_temperature;BME280_humidity;BME280_pressure;Samples;Min_cycle;Max_cycle;Signal;HPM_P1;HPM_P2
2021/12/20 00:01:26;;;;;;;222.67;210.57;;;8.20;99.90;;;;;;4947640;28;20665;-81
2021/12/20 00:03:51;;;;;;;204.47;193.47;;;8.20;99.90;;;;;;4970994;28;20584;-80
2021/12/20 00:06:17;;;;;;;215.83;203.30;;;8.20;99.90;;;;;;4963484;28;20561;-80
2021/12/20 00:08:43;;;;;;;197.93;186.80;;;8.20;99.90;;;;;;4977304;28;20230;-80
2021/12/20 00:11:08;;;;;;;206.00;194.47;;;8.20;99.90;;;;;;4974179;28;20661;-80
2021/12/20 00:13:34;;;;;;;196.73;185.73;;;8.20;99.90;;;;;;4951684;28;20239;-80
2021/12/20 00:16:00;;;;;;;187.70;177.27;;;8.20;99.90;;;;;;4968500;28;20214;-80
2021/12/20 00:18:26;;;;;;;189.00;178.90;;;8.20;99.90;;;;;;5006851;28;20188;-78
2021/12/20 00:20:51;;;;;;;176.27;166.63;;;8.20;99.90;;;;;;4980992;28;20211;-79
2021/12/20 00:23:17;;;;;;;174.97;165.13;;;8.20;99.90;;;;;;4966702;28;20275;-80
2021/12/20 00:25:48;;;;;;;163.20;154.20;;;8.20;99.90;;;;;;4984490;28;20270;-80
2021/12/20 00:28:15;;;;;;;168.70;159.40;;;8.20;99.90;;;;;;4990199;28;20234;-79
2021/12/20 00:30:41;;;;;;;162.20;153.43;;;8.20;99.90;;;;;;4973922;28;20287;-80
2021/12/20 00:33:07;;;;;;;156.73;147.83;;;8.20;99.90;;;;;;4974883;28;20195;-80
2021/12/20 00:35:32;;;;;;;152.63;143.97;;;8.10;99.90;;;;;;4989666;28;20239;-79
2021/12/20 00:40:43;;;;;;;144.30;135.20;;;8.10;99.90;;;;;;4991714;28;20199;-80
2021/12/20 00:43:09;;;;;;;138.03;130.63;;;8.10;99.90;;;;;;4973578;28;20224;-80
2021/12/20 00:45:37;;;;;;;131.57;123.77;;;8.10;99.90;;;;;;4973475;28;20460;-80
2021/12/20 00:48:04;;;;;;;132.13;125.03;;;8.00;99.90;;;;;;5000248;28;20188;-79
2021/12/20 00:50:30;;;;;;;126.40;119.60;;;8.10;99.90;;;;;;4969260;28;20195;-80
2021/12/20 00:52:57;;;;;;;120.33;113.03;;;8.00;99.90;;;;;;4975224;28;20673;-80
2021/12/20 00:55:25;;;;;;;117.97;111.23;;;8.00;99.90;;;;;;4982721;28;20335;-80
2021/12/20 00:57:53;;;;;;;112.73;105.27;;;8.10;99.90;;;;;;4982926;28;20206;-81
2021/12/20 01:00:26;;;;;;;108.13;100.67;;;8.10;99.90;;;;;;4999934;28;20184;-80
2021/12/20 01:02:53;;;;;;;103.77;97.57;;;8.10;99.90;;;;;;5000332;28;20263;-79
2021/12/20 01:05:20;;;;;;;101.27;94.97;;;8.10;99.90;;;;;;4982435;28;20206;-79
2021/12/20 01:07:46;;;;;;;99.10;92.70;;;8.10;99.90;;;;;;4989768;28;20196;-79
2021/12/20 01:10:12;;;;;;;95.70;89.63;;;8.10;99.90;;;;;;4990098;28;20245;-79
2021/12/20 01:12:47;;;;;;;90.30;84.60;;;8.00;99.90;;;;;;4965941;28;20217;-80
2021/12/20 01:15:17;;;;;;;91.23;85.40;;;8.00;99.90;;;;;;4981517;28;20229;-80
2021/12/20 01:17:43;;;;;;;84.20;78.73;;;8.00;99.90;;;;;;5009639;28;20223;-80
2021/12/20 01:20:09;;;;;;;84.90;78.67;;;8.00;99.90;;;;;;4992830;28;20218;-79
2021/12/20 01:22:35;;;;;;;81.43;76.27;;;8.00;99.90;;;;;;4977775;28;20203;-79
2021/12/20 01:25:02;;;;;;;81.10;75.70;;;8.00;99.90;;;;;;4977417;28;20200;-79
2021/12/20 01:27:27;;;;;;;78.10;73.27;;;8.00;99.90;;;;;;4994888;28;20200;-79
2021/12/20 01:29:53;;;;;;;73.27;68.27;;;8.00;99.90;;;;;;4977854;28;20211;-80
2021/12/20 01:32:19;;;;;;;73.30;67.93;;;8.10;99.90;;;;;;4986289;28;20195;-80
2021/12/20 01:34:44;;;;;;;68.07;62.77;;;8.00;99.90;;;;;;4993654;28;20291;-79
2021/12/20 01:37:10;;;;;;;65.77;60.60;;;8.10;99.90;;;;;;4992262;28;20267;-80
2021/12/20 01:39:36;;;;;;;62.90;57.87;;;8.00;99.90;;;;;;4954361;28;20199;-80
2021/12/20 01:42:04;;;;;;;62.60;57.83;;;8.00;99.90;;;;;;4953576;28;20209;-79
2021/12/20 01:44:31;;;;;;;62.97;57.70;;;8.00;99.90;;;;;;4987555;28;20188;-79
2021/12/20 01:46:57;;;;;;;56.47;52.57;;;8.00;99.90;;;;;;4977272;28;20723;-79
2021/12/20 01:49:23;;;;;;;54.23;49.53;;;8.00;99.90;;;;;;5010511;28;20675;-80
2021/12/20 01:54:24;;;;;;;45.90;42.33;;;8.00;99.90;;;;;;4988123;28;20219;-80
2021/12/20 01:56:50;;;;;;;45.20;40.67;;;8.00;99.90;;;;;;4993307;28;20275;-80
2021/12/20 01:59:17;;;;;;;45.53;41.50;;;8.00;99.90;;;;;;4970358;28;20603;-79
2021/12/20 02:01:45;;;;;;;41.90;38.27;;;8.00;99.90;;;;;;5002433;28;20688;-79
2021/12/20 02:04:12;;;;;;;39.77;34.63;;;8.00;99.90;;;;;;4969895;28;20684;-79
2021/12/20 02:06:45;;;;;;;36.83;33.27;;;8.00;99.90;;;;;;5008778;28;20853;-79
2021/12/20 02:09:15;;;;;;;38.27;34.77;;;8.00;99.90;;;;;;4987246;28;20278;-79
2021/12/20 02:11:44;;;;;;;37.07;33.87;;;8.00;99.90;;;;;;4975303;28;20212;-79
2021/12/20 02:14:13;;;;;;;34.13;30.67;;;7.90;99.90;;;;;;4991811;28;20249;-80
2021/12/20 02:16:40;;;;;;;42.57;30.20;;;8.00;99.90;;;;;;4943609;28;20199;-80
2021/12/20 02:19:09;;;;;;;33.27;29.90;;;8.00;99.90;;;;;;4959750;28;20231;-79
2021/12/20 02:21:35;;;;;;;32.43;28.67;;;8.00;99.90;;;;;;4974414;28;20204;-79
2021/12/20 02:24:02;;;;;;;39.07;28.67;;;8.00;99.90;;;;;;4982073;28;20192;-78
2021/12/20 02:26:28;;;;;;;30.80;27.50;;;8.00;99.90;;;;;;4990795;28;20671;-79
2021/12/20 02:28:57;;;;;;;27.67;24.97;;;8.00;99.90;;;;;;4967255;28;20247;-79
2021/12/20 02:39:38;;;;;;;34.73;26.47;;;8.00;99.90;;;;;;4930821;29;20376;-79
2021/12/20 02:42:04;;;;;;;28.63;22.20;;;8.10;99.90;;;;;;4968809;28;20620;-79
2021/12/20 02:44:31;;;;;;;27.87;20.00;;;8.10;99.90;;;;;;4965424;28;20571;-78
2021/12/20 02:49:28;;;;;;;32.77;19.13;;;8.10;99.90;;;;;;4974751;28;20191;-80
2021/12/20 02:52:03;;;;;;;30.87;17.23;;;8.00;99.90;;;;;;5001226;28;20185;-80
2021/12/20 02:54:29;;;;;;;27.17;16.67;;;8.00;99.90;;;;;;5000737;28;20222;-80
2021/12/20 02:56:55;;;;;;;30.30;15.90;;;8.00;99.90;;;;;;4982803;28;20291;-79
2021/12/20 02:59:21;;;;;;;27.67;16.80;;;7.90;99.90;;;;;;4958105;28;20196;-79
2021/12/20 03:01:52;;;;;;;21.17;14.60;;;7.90;99.90;;;;;;4967408;28;20556;-79
2021/12/20 03:04:17;;;;;;;24.03;14.90;;;7.90;99.90;;;;;;4999491;28;20801;-79
2021/12/20 03:06:47;;;;;;;26.13;13.70;;;7.90;99.90;;;;;;4982520;28;20333;-79
2021/12/20 03:09:17;;;;;;;25.13;13.30;;;7.90;99.90;;;;;;4980962;28;21089;-78
2021/12/20 03:11:46;;;;;;;28.13;12.83;;;8.00;99.90;;;;;;4999140;28;20208;-79
2021/12/20 03:14:25;;;;;;;23.00;13.17;;;8.00;99.90;;;;;;4991419;28;20222;-79
2021/12/20 03:16:51;;;;;;;20.37;11.90;;;8.00;99.90;;;;;;5002135;28;20186;-79
2021/12/20 03:19:17;;;;;;;22.73;11.83;;;8.00;99.90;;;;;;4982921;28;20192;-80
2021/12/20 03:21:42;;;;;;;22.43;10.90;;;8.00;99.90;;;;;;4951721;28;20677;-80
2021/12/20 03:24:08;;;;;;;28.90;11.37;;;8.00;99.90;;;;;;4990088;28;20282;-78
2021/12/20 03:26:34;;;;;;;37.57;10.77;;;8.00;99.90;;;;;;4972104;28;20206;-78
2021/12/20 03:29:00;;;;;;;23.07;9.90;;;8.00;99.90;;;;;;4999738;28;20546;-79
2021/12/20 03:31:26;;;;;;;22.23;9.83;;;8.00;99.90;;;;;;4990043;28;20210;-79
2021/12/20 03:33:52;;;;;;;28.50;9.60;;;8.00;99.90;;;;;;4968499;28;20491;-78
2021/12/20 03:36:18;;;;;;;23.83;10.17;;;8.00;99.90;;;;;;4984378;28;20196;-78
2021/12/20 03:38:43;;;;;;;21.70;9.30;;;8.00;99.90;;;;;;4990466;28;20198;-78
2021/12/20 03:41:09;;;;;;;28.67;9.70;;;8.00;99.90;;;;;;4972981;28;20625;-78
2021/12/20 03:43:35;;;;;;;23.40;8.90;;;8.00;99.90;;;;;;4967496;28;20200;-79
2021/12/20 03:46:05;;;;;;;22.03;9.50;;;8.00;99.90;;;;;;4973929;28;20191;-79
2021/12/20 03:48:31;;;;;;;25.87;9.90;;;7.90;99.90;;;;;;4983055;28;20687;-78
2021/12/20 03:51:01;;;;;;;19.47;8.93;;;7.90;99.90;;;;;;5001633;28;20622;-79
2021/12/20 03:53:27;;;;;;;21.27;9.03;;;7.90;99.90;;;;;;4982701;28;20198;-80
2021/12/20 03:55:53;;;;;;;24.20;8.50;;;7.90;99.90;;;;;;4990744;28;20747;-78
2021/12/20 03:58:19;;;;;;;22.53;9.13;;;7.90;99.90;;;;;;4975060;28;20207;-79
2021/12/20 04:00:45;;;;;;;23.43;8.87;;;7.90;99.90;;;;;;5000641;28;20284;-78
2021/12/20 04:03:13;;;;;;;28.60;8.30;;;7.90;99.90;;;;;;4952313;28;20645;-79
2021/12/20 04:05:39;;;;;;;24.20;8.37;;;7.90;99.90;;;;;;4970280;28;20210;-80
2021/12/20 04:08:05;;;;;;;21.70;7.60;;;7.90;99.90;;;;;;4966761;28;20195;-79
2021/12/20 04:10:31;;;;;;;27.87;8.07;;;7.90;99.90;;;;;;4982391;28;20286;-78
2021/12/20 04:12:57;;;;;;;23.07;7.97;;;7.90;99.90;;;;;;4990111;28;20211;-79
2021/12/20 04:15:23;;;;;;;15.73;6.73;;;7.90;99.90;;;;;;4949546;28;20240;-79
2021/12/20 04:17:49;;;;;;;22.77;7.73;;;7.90;99.90;;;;;;4988928;28;20196;-80
2021/12/20 04:20:14;;;;;;;23.43;6.47;;;7.90;99.90;;;;;;4989820;28;20195;-79
2021/12/20 04:22:40;;;;;;;17.10;6.63;;;7.90;99.90;;;;;;4983872;28;20210;-80
2021/12/20 04:25:07;;;;;;;19.80;6.23;;;7.90;99.90;;;;;;5004617;28;20253;-79
2021/12/20 04:27:33;;;;;;;23.20;6.17;;;7.90;99.90;;;;;;4981544;28;20323;-80
2021/12/20 04:29:58;;;;;;;19.33;6.13;;;7.90;99.90;;;;;;4982395;28;20284;-80
2021/12/20 04:32:24;;;;;;;16.97;6.30;;;7.90;99.90;;;;;;4950384;28;20200;-79
2021/12/20 04:34:50;;;;;;;22.27;5.87;;;7.90;99.90;;;;;;4989232;28;20362;-78
2021/12/20 04:37:16;;;;;;;19.20;5.90;;;8.00;99.90;;;;;;5005186;28;20198;-79
2021/12/20 04:39:42;;;;;;;19.33;6.43;;;7.90;99.90;;;;;;4998072;28;20191;-80
2021/12/20 04:42:08;;;;;;;18.83;6.47;;;8.00;99.90;;;;;;4966438;28;20253;-79
2021/12/20 04:44:35;;;;;;;25.63;6.30;;;7.90;99.90;;;;;;4989752;28;20314;-79
2021/12/20 04:47:01;;;;;;;23.87;6.00;;;7.90;99.90;;;;;;4957189;28;20191;-79
2021/12/20 04:49:27;;;;;;;20.00;6.07;;;8.00;99.90;;;;;;4989424;28;20200;-78
2021/12/20 04:51:54;;;;;;;20.63;6.20;;;8.00;99.90;;;;;;4967066;28;20195;-79
2021/12/20 04:54:20;;;;;;;21.77;5.67;;;8.00;99.90;;;;;;4974072;28;20220;-78
2021/12/20 04:56:46;;;;;;;20.67;5.50;;;8.00;99.90;;;;;;4949673;28;20212;-79
2021/12/20 04:59:12;;;;;;;29.47;6.00;;;8.00;99.90;;;;;;4999015;28;20188;-79
2021/12/20 05:01:38;;;;;;;20.80;6.43;;;8.00;99.90;;;;;;4988657;28;20205;-80
2021/12/20 05:04:04;;;;;;;22.43;5.90;;;8.10;99.90;;;;;;4973452;28;20246;-79
2021/12/20 05:06:31;;;;;;;19.63;5.47;;;8.00;99.90;;;;;;4973853;28;20195;-80
2021/12/20 05:08:57;;;;;;;20.43;5.50;;;8.00;99.90;;;;;;4999781;28;20229;-79
2021/12/20 05:11:24;;;;;;;19.80;4.93;;;8.00;99.90;;;;;;4999588;28;20211;-79
2021/12/20 05:13:49;;;;;;;23.27;6.10;;;8.00;99.90;;;;;;4989619;28;20232;-78
2021/12/20 05:16:16;;;;;;;16.70;5.00;;;7.90;99.90;;;;;;4972594;28;20203;-79
2021/12/20 05:18:43;;;;;;;19.20;5.73;;;8.00;99.90;;;;;;4981273;28;20184;-79
2021/12/20 05:21:08;;;;;;;16.97;5.93;;;8.00;99.90;;;;;;4998995;28;20195;-80
2021/12/20 05:23:34;;;;;;;24.13;6.37;;;8.00;99.90;;;;;;4949802;28;20187;-79
2021/12/20 05:26:00;;;;;;;18.27;6.07;;;8.00;99.90;;;;;;4965915;28;20299;-80
2021/12/20 05:28:26;;;;;;;17.03;5.57;;;7.90;99.90;;;;;;4982530;28;20255;-78
2021/12/20 05:30:53;;;;;;;18.90;6.37;;;7.90;99.90;;;;;;4965835;28;20291;-78
2021/12/20 05:33:19;;;;;;;24.63;5.77;;;7.90;99.90;;;;;;4988995;28;20728;-80
2021/12/20 05:35:46;;;;;;;18.13;5.47;;;7.90;99.90;;;;;;4981720;28;20184;-80
2021/12/20 05:38:13;;;;;;;26.73;6.37;;;7.90;99.90;;;;;;4972358;28;20270;-78
2021/12/20 05:40:38;;;;;;;26.90;5.40;;;7.90;99.90;;;;;;4972491;28;20184;-80
2021/12/20 05:43:05;;;;;;;19.70;5.70;;;7.90;99.90;;;;;;4981383;28;20223;-79
2021/12/20 05:45:31;;;;;;;18.60;5.43;;;7.80;99.90;;;;;;4981302;28;20214;-78
2021/12/20 05:47:56;;;;;;;24.23;4.93;;;7.90;99.90;;;;;;5000994;28;20677;-80
2021/12/20 05:50:24;;;;;;;13.90;4.63;;;7.90;99.90;;;;;;4981059;28;20629;-79
2021/12/20 05:52:49;;;;;;;17.17;4.60;;;7.90;99.90;;;;;;4988643;28;20661;-78
2021/12/20 05:55:15;;;;;;;17.70;4.70;;;7.90;99.90;;;;;;4949346;28;20216;-79
2021/12/20 05:57:41;;;;;;;19.47;5.03;;;7.90;99.90;;;;;;4999957;28;20203;-79
2021/12/20 06:00:18;;;;;;;24.70;4.60;;;7.90;99.90;;;;;;4966179;28;20198;-79
2021/12/20 06:02:46;;;;;;;19.60;4.70;;;7.90;99.90;;;;;;5005275;28;20600;-80
2021/12/20 06:05:13;;;;;;;16.90;5.37;;;7.90;99.90;;;;;;4975405;28;20188;-79
2021/12/20 06:07:41;;;;;;;18.90;4.60;;;7.90;99.90;;;;;;4976917;28;20220;-79
2021/12/20 06:10:09;;;;;;;21.10;4.53;;;7.90;99.90;;;;;;4979327;28;20607;-79
2021/12/20 06:12:35;;;;;;;18.57;5.03;;;7.90;99.90;;;;;;4950842;28;20228;-79
2021/12/20 06:15:03;;;;;;;21.70;5.23;;;7.90;99.90;;;;;;4951098;28;20754;-79
2021/12/20 06:17:29;;;;;;;19.63;4.77;;;7.90;99.90;;;;;;4972026;28;20223;-80
2021/12/20 06:19:55;;;;;;;23.70;4.97;;;7.90;99.90;;;;;;4981097;28;20195;-80
2021/12/20 06:22:20;;;;;;;24.07;5.40;;;7.90;99.90;;;;;;4973099;28;20251;-79
2021/12/20 06:24:46;;;;;;;21.63;5.30;;;7.90;99.90;;;;;;4949432;28;20196;-79
2021/12/20 06:27:12;;;;;;;15.87;5.30;;;7.90;99.90;;;;;;4932731;28;20236;-80
2021/12/20 06:29:37;;;;;;;17.17;4.47;;;7.90;99.90;;;;;;4983157;28;20251;-78
2021/12/20 06:32:03;;;;;;;18.53;4.53;;;7.80;99.90;;;;;;4956629;28;20301;-78
2021/12/20 06:34:30;;;;;;;13.77;3.73;;;7.80;99.90;;;;;;4956007;28;20584;-79
2021/12/20 06:36:55;;;;;;;21.57;4.00;;;7.80;99.90;;;;;;4972680;28;20208;-79
2021/12/20 06:39:23;;;;;;;12.27;3.83;;;7.90;99.90;;;;;;4950081;28;20188;-78
2021/12/20 06:41:52;;;;;;;14.77;4.10;;;7.80;99.90;;;;;;4973068;28;20208;-79
2021/12/20 06:44:19;;;;;;;14.93;3.80;;;7.90;99.90;;;;;;4988218;28;20196;-79
2021/12/20 06:46:45;;;;;;;15.80;4.07;;;7.90;99.90;;;;;;4972687;28;20196;-80
2021/12/20 06:49:11;;;;;;;12.43;3.43;;;7.90;99.90;;;;;;4948646;28;20204;-79
2021/12/20 06:51:41;;;;;;;15.37;3.70;;;7.90;99.90;;;;;;4958486;28;20216;-78
2021/12/20 06:54:08;;;;;;;15.57;3.80;;;7.90;99.90;;;;;;4987809;28;20219;-79
2021/12/20 06:56:33;;;;;;;13.03;3.50;;;7.90;99.90;;;;;;4971235;28;20209;-79
2021/12/20 06:58:59;;;;;;;15.90;3.40;;;7.90;99.90;;;;;;4955356;28;20565;-79
2021/12/20 07:01:24;;;;;;;17.87;3.37;;;7.90;99.90;;;;;;4932912;28;20286;-78
2021/12/20 07:03:50;;;;;;;18.20;3.23;;;7.90;99.90;;;;;;4948836;28;20211;-80
2021/12/20 07:06:16;;;;;;;17.47;3.10;;;7.90;99.90;;;;;;4955760;28;20196;-80
2021/12/20 07:08:42;;;;;;;16.77;3.10;;;7.90;99.90;;;;;;4983816;28;20232;-79
2021/12/20 07:11:09;;;;;;;14.00;2.90;;;7.90;99.90;;;;;;4974964;28;20293;-79
2021/12/20 07:13:35;;;;;;;15.03;2.87;;;7.90;99.90;;;;;;4984176;28;20615;-78
2021/12/20 07:16:00;;;;;;;13.23;2.37;;;7.90;99.90;;;;;;4975231;28;20227;-79
2021/12/20 07:18:26;;;;;;;15.27;2.77;;;7.90;99.90;;;;;;4970206;28;20361;-80
2021/12/20 07:20:52;;;;;;;7.33;1.93;;;7.90;99.90;;;;;;5001819;28;20634;-79
2021/12/20 07:23:18;;;;;;;11.17;2.33;;;7.80;99.90;;;;;;4968148;28;20184;-79
2021/12/20 07:25:43;;;;;;;9.17;3.07;;;7.90;99.90;;;;;;4981647;28;20192;-79
2021/12/20 07:28:09;;;;;;;14.33;2.60;;;7.80;99.90;;;;;;4950523;28;20204;-80
2021/12/20 07:30:36;;;;;;;10.17;2.10;;;7.80;99.90;;;;;;4968727;28;20552;-79
2021/12/20 07:33:02;;;;;;;13.00;2.90;;;7.80;99.90;;;;;;4984039;28;20723;-78
2021/12/20 07:35:28;;;;;;;9.57;2.33;;;7.80;99.90;;;;;;5001519;28;20660;-78
2021/12/20 07:37:57;;;;;;;10.20;2.73;;;7.80;99.90;;;;;;4990080;28;20199;-80
2021/12/20 07:40:23;;;;;;;10.33;2.30;;;7.80;99.90;;;;;;4959707;28;20191;-79
2021/12/20 07:42:49;;;;;;;10.63;2.00;;;7.80;99.90;;;;;;4960483;28;20606;-80
2021/12/20 07:45:15;;;;;;;12.47;2.37;;;7.80;99.90;;;;;;4998908;28;20825;-78
2021/12/20 07:47:41;;;;;;;14.20;2.27;;;7.80;99.90;;;;;;5000904;28;20263;-79
2021/12/20 07:50:07;;;;;;;12.63;2.67;;;7.70;99.90;;;;;;4989803;28;20219;-80
2021/12/20 07:52:33;;;;;;;12.90;2.23;;;7.70;99.90;;;;;;4967508;28;20207;-79
2021/12/20 07:54:59;;;;;;;10.07;2.50;;;7.70;99.90;;;;;;5001186;28;20212;-79
2021/12/20 07:57:25;;;;;;;18.13;2.40;;;7.70;99.90;;;;;;4991454;28;20215;-80
2021/12/20 07:59:51;;;;;;;11.70;2.60;;;7.70;99.90;;;;;;4991254;28;20191;-80
2021/12/20 08:02:17;;;;;;;9.77;1.97;;;7.70;99.90;;;;;;4984028;28;20200;-81
2021/12/20 08:04:48;;;;;;;10.30;2.23;;;7.70;99.90;;;;;;4966387;28;20212;-79
2021/12/20 08:07:14;;;;;;;8.63;2.57;;;7.70;99.90;;;;;;4990140;28;20199;-80
2021/12/20 08:09:39;;;;;;;10.67;2.57;;;7.70;99.90;;;;;;4986358;28;20236;-80
2021/12/20 08:12:06;;;;;;;11.83;2.30;;;7.70;99.90;;;;;;4954297;28;20211;-79
2021/12/20 08:14:31;;;;;;;11.07;2.10;;;7.70;99.90;;;;;;4954545;28;20247;-80
2021/12/20 08:16:57;;;;;;;7.27;2.80;;;7.70;99.90;;;;;;4954504;28;20610;-79
2021/12/20 08:19:23;;;;;;;13.70;3.00;;;7.70;99.90;;;;;;4963737;28;20192;-80
2021/12/20 08:21:48;;;;;;;9.10;2.27;;;7.80;99.90;;;;;;4954757;28;20291;-79
2021/12/20 08:24:18;;;;;;;12.73;2.57;;;7.80;99.90;;;;;;4955215;28;20628;-79
2021/12/20 08:26:44;;;;;;;11.13;2.90;;;7.80;99.90;;;;;;4953915;28;20224;-79
2021/12/20 08:29:10;;;;;;;10.87;2.47;;;7.80;99.90;;;;;;4954502;28;20196;-79
2021/12/20 08:31:36;;;;;;;16.83;2.60;;;7.80;99.90;;;;;;4953123;28;20287;-81
2021/12/20 08:34:03;;;;;;;11.90;2.50;;;7.90;99.90;;;;;;4962644;28;20508;-79
2021/12/20 08:36:28;;;;;;;8.80;2.30;;;7.80;99.90;;;;;;4962877;28;20642;-79
2021/12/20 08:38:54;;;;;;;13.27;2.53;;;7.90;99.90;;;;;;4979475;28;20221;-80
2021/12/20 08:41:20;;;;;;;18.77;2.93;;;7.90;99.90;;;;;;4970759;28;20194;-80
2021/12/20 08:43:46;;;;;;;14.53;2.97;;;8.00;99.90;;;;;;4980648;28;20282;-79
2021/12/20 08:46:14;;;;;;;8.33;2.20;;;8.00;99.90;;;;;;4954175;28;20288;-79
2021/12/20 08:48:40;;;;;;;14.33;3.07;;;8.00;99.90;;;;;;4980436;28;20224;-79
2021/12/20 08:51:06;;;;;;;12.57;2.40;;;8.10;99.90;;;;;;4970218;28;20204;-80
2021/12/20 08:53:32;;;;;;;8.47;2.20;;;8.10;99.90;;;;;;4938318;28;20192;-81
2021/12/20 08:55:58;;;;;;;12.93;2.40;;;8.10;99.90;;;;;;4980892;28;20193;-79
2021/12/20 08:58:24;;;;;;;12.53;2.43;;;8.10;99.90;;;;;;4978075;28;20211;-79
2021/12/20 09:00:51;;;;;;;8.80;2.43;;;8.10;99.90;;;;;;4952845;28;20180;-80
2021/12/20 09:03:16;;;;;;;13.20;2.70;;;8.10;99.90;;;;;;4981219;28;20708;-80
2021/12/20 09:05:42;;;;;;;8.33;2.47;;;8.20;99.90;;;;;;4970250;28;20184;-80
2021/12/20 09:08:09;;;;;;;8.47;2.47;;;8.20;99.90;;;;;;4955251;28;20203;-78
2021/12/20 09:10:36;;;;;;;14.80;2.60;;;8.30;99.90;;;;;;4970909;28;20228;-81
2021/12/20 09:13:03;;;;;;;8.13;2.10;;;8.30;99.90;;;;;;4988208;28;20218;-78
2021/12/20 09:15:30;;;;;;;19.37;2.67;;;8.30;99.90;;;;;;4971148;28;20735;-80
2021/12/20 09:17:55;;;;;;;9.40;2.20;;;8.40;99.90;;;;;;4955779;28;20211;-80
2021/12/20 09:20:25;;;;;;;19.47;2.37;;;8.40;99.90;;;;;;4972234;28;20196;-80
2021/12/20 09:22:52;;;;;;;12.43;2.50;;;8.40;99.90;;;;;;4988063;28;20254;-80
2021/12/20 09:25:24;;;;;;;5.70;2.00;;;8.50;99.90;;;;;;4948870;28;20200;-81
2021/12/20 09:27:51;;;;;;;14.03;2.63;;;8.50;99.90;;;;;;4987085;28;20653;-79
2021/12/20 09:30:17;;;;;;;11.97;2.60;;;8.50;99.90;;;;;;4989470;28;20239;-79
2021/12/20 09:32:43;;;;;;;10.00;2.13;;;8.50;99.90;;;;;;4990824;28;20188;-80
2021/12/20 09:35:09;;;;;;;19.27;2.97;;;8.50;99.90;;;;;;4990440;28;20223;-79
2021/12/20 09:37:37;;;;;;;11.60;2.07;;;8.50;99.90;;;;;;4971607;28;20187;-81
2021/12/20 09:40:04;;;;;;;7.67;2.50;;;8.40;99.90;;;;;;4943739;28;20219;-80
2021/12/20 09:42:32;;;;;;;10.47;2.13;;;8.30;99.90;;;;;;4975705;28;20542;-78
2021/12/20 09:45:00;;;;;;;14.13;2.57;;;8.30;99.90;;;;;;4952879;28;20207;-79
2021/12/20 09:47:33;;;;;;;11.53;2.30;;;8.40;99.90;;;;;;4992295;28;20216;-80
2021/12/20 09:50:01;;;;;;;11.67;2.40;;;8.30;99.90;;;;;;4992313;28;20677;-79
2021/12/20 09:52:27;;;;;;;13.73;2.37;;;8.40;99.90;;;;;;4976547;28;20223;-80
2021/12/20 09:54:53;;;;;;;12.13;2.50;;;8.40;99.90;;;;;;4976616;28;20211;-80
2021/12/20 09:57:21;;;;;;;15.63;2.70;;;8.50;99.90;;;;;;4957861;28;20212;-80
2021/12/20 09:59:50;;;;;;;12.60;2.53;;;8.60;99.90;;;;;;4991036;28;20184;-80
2021/12/20 10:02:18;;;;;;;16.43;2.90;;;8.60;99.90;;;;;;4974002;28;20217;-79
2021/12/20 10:04:44;;;;;;;16.03;2.50;;;8.70;99.90;;;;;;4990883;28;20269;-80
2021/12/20 10:07:11;;;;;;;12.57;2.67;;;8.80;99.90;;;;;;4974796;28;20192;-80
2021/12/20 10:09:40;;;;;;;8.67;2.23;;;8.80;99.90;;;;;;4965737;28;20779;-80
2021/12/20 10:12:09;;;;;;;12.43;2.97;;;8.80;99.90;;;;;;5003757;28;20246;-80
2021/12/20 10:15:02;;;;;;;8.33;2.20;;;8.90;99.90;;;;;;4992664;28;20266;-80
2021/12/20 10:17:52;;;;;;;10.97;2.40;;;8.90;99.90;;;;;;4992107;28;20187;-79
2021/12/20 10:20:22;;;;;;;10.43;2.50;;;9.00;99.90;;;;;;4987473;28;20230;-80
2021/12/20 10:22:48;;;;;;;9.83;2.10;;;9.00;99.90;;;;;;4986434;28;20211;-79
2021/12/20 10:25:22;;;;;;;13.83;3.10;;;9.10;99.90;;;;;;4976834;28;20196;-80
2021/12/20 10:27:48;;;;;;;15.00;3.30;;;9.00;99.90;;;;;;5002676;28;20196;-80
2021/12/20 10:30:32;;;;;;;17.20;2.67;;;9.10;99.90;;;;;;4993408;28;20199;-80
2021/12/20 10:32:58;;;;;;;16.33;2.90;;;9.10;99.90;;;;;;4984321;28;20218;-79
2021/12/20 10:35:29;;;;;;;11.37;2.40;;;9.10;99.90;;;;;;5001671;28;20211;-80
2021/12/20 10:37:59;;;;;;;16.03;3.03;;;9.10;99.90;;;;;;4992216;28;20278;-79
2021/12/20 10:40:25;;;;;;;13.47;2.43;;;9.20;99.90;;;;;;4991956;28;20187;-79
2021/12/20 10:42:56;;;;;;;15.27;3.10;;;9.20;99.90;;;;;;4984227;28;20231;-81
2021/12/20 10:45:22;;;;;;;16.83;2.37;;;9.20;99.90;;;;;;4993366;28;20545;-80
2021/12/20 10:47:50;;;;;;;8.63;2.63;;;9.20;99.90;;;;;;4961297;28;20563;-80
2021/12/20 10:50:43;;;;;;;9.57;2.23;;;9.30;99.90;;;;;;4991269;28;20239;-79
2021/12/20 10:53:24;;;;;;;11.00;2.50;;;9.40;99.90;;;;;;4983577;28;20222;-80
2021/12/20 10:55:51;;;;;;;13.00;2.90;;;9.40;99.90;;;;;;4984138;28;20223;-79
2021/12/20 10:58:34;;;;;;;17.73;2.40;;;9.40;99.90;;;;;;4985747;28;20236;-80
2021/12/20 11:01:22;;;;;;;6.87;2.50;;;9.50;99.90;;;;;;4984817;28;20664;-79
2021/12/20 11:04:10;;;;;;;8.80;1.80;;;9.50;99.90;;;;;;4991724;28;20541;-80
2021/12/20 11:07:00;;;;;;;8.07;2.47;;;9.50;99.90;;;;;;4984227;28;20262;-79
2021/12/20 11:09:30;;;;;;;7.13;1.90;;;9.50;99.90;;;;;;5002069;28;20231;-79
2021/12/20 11:11:58;;;;;;;7.90;1.80;;;9.50;99.90;;;;;;5003171;28;20623;-79
2021/12/20 11:14:33;;;;;;;6.80;1.60;;;9.60;99.90;;;;;;5005682;28;20238;-80
2021/12/20 11:17:01;;;;;;;7.80;1.70;;;9.60;99.90;;;;;;5001223;28;20183;-79
2021/12/20 11:19:29;;;;;;;8.27;1.73;;;9.60;99.90;;;;;;5003596;28;20179;-80
2021/12/20 11:22:04;;;;;;;3.83;1.57;;;9.60;99.90;;;;;;4991048;28;20199;-80
2021/12/20 11:24:55;;;;;;;5.27;1.60;;;9.60;99.90;;;;;;4983563;28;20247;-79
2021/12/20 11:27:37;;;;;;;4.53;1.43;;;9.70;99.90;;;;;;4982809;28;20219;-79
2021/12/20 11:30:14;;;;;;;7.13;1.57;;;9.70;99.90;;;;;;4983433;28;20187;-80
2021/12/20 11:32:41;;;;;;;9.03;1.20;;;9.70;99.90;;;;;;5001334;28;20219;-80
2021/12/20 11:35:07;;;;;;;5.53;1.40;;;9.70;99.90;;;;;;4984043;28;20570;-80
2021/12/20 11:37:33;;;;;;;6.93;1.10;;;9.60;99.90;;;;;;4998698;28;20632;-80
2021/12/20 11:40:03;;;;;;;4.77;1.50;;;9.50;99.90;;;;;;4984351;28;20275;-80
2021/12/20 11:42:29;;;;;;;3.23;0.83;;;9.60;99.90;;;;;;5001663;28;20695;-79
2021/12/20 11:45:00;;;;;;;4.83;1.20;;;9.60;99.90;;;;;;4973471;28;20269;-80
2021/12/20 11:47:51;;;;;;;5.47;1.30;;;9.70;99.90;;;;;;5001135;28;20192;-78
2021/12/20 11:50:20;;;;;;;3.63;0.73;;;9.80;99.90;;;;;;4984101;28;20188;-80
2021/12/20 11:52:48;;;;;;;3.97;1.00;;;10.00;99.90;;;;;;4989851;28;20187;-80
2021/12/20 11:55:22;;;;;;;5.60;1.70;;;10.10;99.90;;;;;;4983346;28;20633;-81
2021/12/20 11:58:03;;;;;;;2.40;0.90;;;10.20;99.90;;;;;;5001843;28;20305;-80
2021/12/20 12:00:37;;;;;;;2.90;0.90;;;10.30;99.90;;;;;;5000705;28;20619;-81
2021/12/20 12:03:07;;;;;;;6.80;1.10;;;10.30;99.90;;;;;;4990779;28;20206;-80
2021/12/20 12:06:00;;;;;;;7.57;1.10;;;10.30;99.90;;;;;;5001024;28;20188;-80
2021/12/20 12:08:39;;;;;;;3.97;1.00;;;10.20;99.90;;;;;;4979711;28;20199;-80
2021/12/20 12:11:04;;;;;;;6.07;0.90;;;10.10;99.90;;;;;;5001901;28;20235;-79
2021/12/20 12:13:58;;;;;;;3.80;0.93;;;10.00;99.90;;;;;;4989903;28;20188;-79
2021/12/20 12:16:47;;;;;;;8.50;0.97;;;10.00;99.90;;;;;;4978719;28;20215;-80
2021/12/20 12:19:39;;;;;;;4.13;0.93;;;10.00;99.90;;;;;;4986117;28;20187;-80
2021/12/20 12:22:26;;;;;;;4.67;1.10;;;10.10;99.90;;;;;;4983497;28;20411;-81
2021/12/20 12:24:55;;;;;;;4.23;0.97;;;10.10;99.90;;;;;;5001245;28;20241;-80
2021/12/20 12:27:32;;;;;;;7.13;1.43;;;10.10;99.90;;;;;;4976659;28;20211;-81
2021/12/20 12:30:13;;;;;;;3.40;1.03;;;10.10;99.90;;;;;;4993228;28;20187;-80
2021/12/20 12:32:48;;;;;;;9.23;1.20;;;10.00;99.90;;;;;;4989970;28;20416;-80
2021/12/20 12:35:56;;;;;;;4.43;0.70;;;9.80;99.90;;;;;;4990214;28;20212;-80
2021/12/20 12:38:32;;;;;;;4.00;1.30;;;9.70;99.90;;;;;;4981835;28;20198;-80
2021/12/20 12:41:12;;;;;;;9.73;1.33;;;9.50;99.90;;;;;;4989470;28;20192;-80
2021/12/20 12:43:52;;;;;;;3.93;0.90;;;9.40;99.90;;;;;;4989529;28;20203;-81
2021/12/20 12:46:36;;;;;;;5.37;1.07;;;9.20;99.90;;;;;;4999906;28;20187;-79
2021/12/20 12:49:22;;;;;;;4.67;0.93;;;9.10;99.90;;;;;;4999171;28;20188;-80
2021/12/20 12:52:16;;;;;;;3.70;1.10;;;9.10;99.90;;;;;;4999554;28;20202;-81
2021/12/20 12:54:46;;;;;;;3.57;0.90;;;9.10;99.90;;;;;;4996562;28;20218;-79
2021/12/20 12:57:12;;;;;;;3.07;0.90;;;9.10;99.90;;;;;;4999849;28;20195;-80
2021/12/20 12:59:54;;;;;;;5.17;1.07;;;9.10;99.90;;;;;;4988133;28;20691;-80
2021/12/20 13:02:29;;;;;;;4.90;0.90;;;9.00;99.90;;;;;;5000254;28;20638;-78
2021/12/20 13:04:57;;;;;;;2.70;0.87;;;9.00;99.90;;;;;;4988165;28;20253;-80
2021/12/20 13:07:24;;;;;;;4.03;1.20;;;9.00;99.90;;;;;;5001148;28;20192;-80
2021/12/20 13:09:52;;;;;;;5.40;0.57;;;9.00;99.90;;;;;;4957845;28;20323;-79